Map

Track Data

SID SEASON NUMBER BASIN SUBBASIN NAME ISO_TIME NATURE LAT LON WMO_WIND WMO_PRES WMO_AGENCY TRACK_TYPE DIST2LAND LANDFALL IFLAG USA_AGENCY USA_ATCF_ID USA_LAT USA_LON USA_RECORD USA_STATUS USA_WIND USA_PRES USA_SSHS USA_R34_NE USA_R34_SE USA_R34_SW USA_R34_NW USA_R50_NE USA_R50_SE USA_R50_SW USA_R50_NW USA_R64_NE USA_R64_SE USA_R64_SW USA_R64_NW USA_POCI USA_ROCI USA_RMW USA_EYE TOKYO_LAT TOKYO_LON TOKYO_GRADE TOKYO_WIND TOKYO_PRES TOKYO_R50_DIR TOKYO_R50_LONG TOKYO_R50_SHORT TOKYO_R30_DIR TOKYO_R30_LONG TOKYO_R30_SHORT TOKYO_LAND CMA_LAT CMA_LON CMA_CAT CMA_WIND CMA_PRES HKO_LAT HKO_LON HKO_CAT HKO_WIND HKO_PRES NEWDELHI_LAT NEWDELHI_LON NEWDELHI_GRADE NEWDELHI_WIND NEWDELHI_PRES NEWDELHI_CI NEWDELHI_DP NEWDELHI_POCI REUNION_LAT REUNION_LON REUNION_TYPE REUNION_WIND REUNION_PRES REUNION_TNUM REUNION_CI REUNION_RMW REUNION_R34_NE REUNION_R34_SE REUNION_R34_SW REUNION_R34_NW REUNION_R50_NE REUNION_R50_SE REUNION_R50_SW REUNION_R50_NW REUNION_R64_NE REUNION_R64_SE REUNION_R64_SW REUNION_R64_NW BOM_LAT BOM_LON BOM_TYPE BOM_WIND BOM_PRES BOM_TNUM BOM_CI BOM_RMW BOM_R34_NE BOM_R34_SE BOM_R34_SW BOM_R34_NW BOM_R50_NE BOM_R50_SE BOM_R50_SW BOM_R50_NW BOM_R64_NE BOM_R64_SE BOM_R64_SW BOM_R64_NW BOM_ROCI BOM_POCI BOM_EYE BOM_POS_METHOD BOM_PRES_METHOD NADI_LAT NADI_LON NADI_CAT NADI_WIND NADI_PRES WELLINGTON_LAT WELLINGTON_LON WELLINGTON_WIND WELLINGTON_PRES DS824_LAT DS824_LON DS824_STAGE DS824_WIND DS824_PRES TD9636_LAT TD9636_LON TD9636_STAGE TD9636_WIND TD9636_PRES TD9635_LAT TD9635_LON TD9635_WIND TD9635_PRES TD9635_ROCI NEUMANN_LAT NEUMANN_LON NEUMANN_CLASS NEUMANN_WIND NEUMANN_PRES MLC_LAT MLC_LON MLC_CLASS MLC_WIND MLC_PRES USA_GUST BOM_GUST BOM_GUST_PER REUNION_GUST REUNION_GUST_PER USA_SEAHGT USA_SEARAD_NE USA_SEARAD_SE USA_SEARAD_SW USA_SEARAD_NW STORM_SPEED STORM_DIR
1921318N14120 1921 65 WP MM NOT_NAMED 1921-11-14 10:00:00 NR 14.2000 119.700 main 77 77 __________O___ -1 14.2000 119.700 3 1 0
1921318N14120 1921 65 WP MM NOT_NAMED 1921-11-14 12:00:00 NR 14.2166 119.675 main 77 77 __________P___ -1 14.2166 119.675 3 1 298
1921318N14120 1921 65 WP MM NOT_NAMED 1921-11-14 15:00:00 NR 14.2415 119.623 main 85 77 __________P___ -1 14.2415 119.623 3 2 289
1921318N14120 1921 65 WP MM NOT_NAMED 1921-11-14 18:00:00 NR 14.2665 119.530 main 85 85 __________P___ -1 14.2665 119.530 3 2 282
1921318N14120 1921 65 WP MM NOT_NAMED 1921-11-14 21:00:00 NR 14.2916 119.371 main 93 93 __________P___ -1 14.2916 119.371 3 3 278
1921318N14120 1921 65 WP MM NOT_NAMED 1921-11-14 22:00:00 NR 14.3000 119.300 main 102 102 __________O___ -1 14.3000 119.300 4 5 276
1921318N14120 1921 65 WP MM NOT_NAMED 1921-11-15 00:00:00 NR 14.3168 119.126 main 121 121 __________P___ -1 14.3168 119.126 4 6 275
1921318N14120 1921 65 WP MM NOT_NAMED 1921-11-15 03:00:00 NR 14.3419 118.803 main 150 150 __________P___ -1 14.3419 118.803 4 7 274
1921318N14120 1921 65 WP MM NOT_NAMED 1921-11-15 06:00:00 NR 14.3668 118.429 main 188 188 __________P___ -1 14.3668 118.429 4 7 274
1921318N14120 1921 65 WP MM NOT_NAMED 1921-11-15 09:00:00 NR 14.3917 118.032 main 230 230 __________P___ -1 14.3917 118.032 4 8 274
1921318N14120 1921 65 WP MM NOT_NAMED 1921-11-15 10:00:00 NR 14.4000 117.900 main 241 241 __________O___ -1 14.4000 117.900 4 7 273
1921318N14120 1921 65 WP MM NOT_NAMED 1921-11-15 12:00:00 NR 14.4140 117.650 main 261 271 __________P___ -1 14.4140 117.650 4 7 273
1921318N14120 1921 65 WP MM NOT_NAMED 1921-11-15 15:00:00 NR 14.4350 117.270 main 301 311 __________P___ -1 14.4350 117.270 4 7 273
1921318N14120 1921 65 WP MM NOT_NAMED 1921-11-15 18:00:00 NR 14.4587 116.890 main 337 337 __________P___ -1 14.4587 116.890 4 7 274
1921318N14120 1921 65 WP MM NOT_NAMED 1921-11-15 21:00:00 NR 14.4883 116.520 main 379 379 __________P___ -1 14.4883 116.520 4 7 275
1921318N14120 1921 65 WP MM NOT_NAMED 1921-11-15 22:00:00 NR 14.5000 116.400 main 389 389 __________O___ -1 14.5000 116.400 4 7 276
1921318N14120 1921 65 WP MM NOT_NAMED 1921-11-16 00:00:00 NR 14.5222 116.172 main 410 410 __________P___ -1 14.5222 116.172 4 7 277
1921318N14120 1921 65 WP MM NOT_NAMED 1921-11-16 03:00:00 NR 14.5618 115.842 main 446 446 __________P___ -1 14.5618 115.842 4 6 278
1921318N14120 1921 65 WP MM NOT_NAMED 1921-11-16 06:00:00 NR 14.6118 115.522 main 477 477 __________P___ -1 14.6118 115.522 4 6 280
1921318N14120 1921 65 WP MM NOT_NAMED 1921-11-16 09:00:00 NR 14.6753 115.206 main 504 504 __________P___ -1 14.6753 115.206 4 6 282
1921318N14120 1921 65 WP MM NOT_NAMED 1921-11-16 10:00:00 NR 14.7000 115.100 main 514 514 __________O___ -1 14.7000 115.100 4 7 283
1921318N14120 1921 65 WP MM NOT_NAMED 1921-11-16 12:00:00 NR 14.7500 114.878 main 535 531 __________P___ -1 14.7500 114.878 4 7 284
1921318N14120 1921 65 WP MM NOT_NAMED 1921-11-16 15:00:00 NR 14.8374 114.545 main 569 539 __________P___ -1 14.8374 114.545 4 7 287
1921318N14120 1921 65 WP MM NOT_NAMED 1921-11-16 18:00:00 NR 14.9400 114.217 main 539 510 __________P___ -1 14.9400 114.217 4 7 289
1921318N14120 1921 65 WP MM NOT_NAMED 1921-11-16 21:00:00 NR 15.0575 113.902 main 513 502 __________P___ -1 15.0575 113.902 4 7 292
1921318N14120 1921 65 WP MM NOT_NAMED 1921-11-16 22:00:00 NR 15.1000 113.800 main 502 485 __________O___ -1 15.1000 113.800 4 6 293
1921318N14120 1921 65 WP MM NOT_NAMED 1921-11-17 00:00:00 NR 15.1806 113.603 main 485 456 __________P___ -1 15.1806 113.603 4 6 295
1921318N14120 1921 65 WP MM NOT_NAMED 1921-11-17 03:00:00 NR 15.3140 113.319 main 456 428 __________P___ -1 15.3140 113.319 4 6 298
1921318N14120 1921 65 WP MM NOT_NAMED 1921-11-17 06:00:00 NR 15.4653 113.048 main 428 409 __________P___ -1 15.4653 113.048 4 6 302
1921318N14120 1921 65 WP MM NOT_NAMED 1921-11-17 09:00:00 NR 15.6374 112.786 main 409 402 __________P___ -1 15.6374 112.786 4 6 305
1921318N14120 1921 65 WP MM NOT_NAMED 1921-11-17 10:00:00 NR 15.7000 112.700 main 402 385 __________O___ -1 15.7000 112.700 4 6 309
1921318N14120 1921 65 WP MM NOT_NAMED 1921-11-17 12:00:00 NR 15.8331 112.530 main 385 363 __________P___ -1 15.8331 112.530 4 6 311
1921318N14120 1921 65 WP MM NOT_NAMED 1921-11-17 15:00:00 NR 16.0496 112.279 main 363 316 __________P___ -1 16.0496 112.279 4 7 313
1921318N14120 1921 65 WP MM NOT_NAMED 1921-11-17 18:00:00 NR 16.2805 112.030 main 316 285 __________P___ -1 16.2805 112.030 4 7 315
1921318N14120 1921 65 WP MM NOT_NAMED 1921-11-17 21:00:00 NR 16.5196 111.782 main 285 270 __________P___ -1 16.5196 111.782 4 7 315
1921318N14120 1921 65 WP MM NOT_NAMED 1921-11-17 22:00:00 NR 16.6000 111.700 main 270 __________O___ -1 16.6000 111.700 4 7 316

Digital Typhoon Data and Search

About IBTrACS Database

This database is a web-friendly format of International Best Track Archive for Climate Stewardship (IBTrACS), a global best track data archive curated by NOAA dating back to 1842.

Updated: 2021-11-26